createdAt,value
2023-05-14T00:36:32.380Z,78.42
2023-05-14T00:40:26.962Z,78.80
2023-05-14T00:56:15.409Z,78.87
2023-05-14T01:00:01.156Z,79.16
2023-05-14T01:03:46.034Z,79.23
2023-05-14T01:27:46.249Z,79.60
2023-05-14T01:31:36.377Z,79.30
2023-05-14T01:35:14.205Z,79.56
2023-05-14T01:38:48.019Z,79.90
2023-05-14T02:02:04.866Z,78.61
2023-05-14T02:05:46.653Z,79.38
2023-05-14T02:09:39.763Z,80.16
2023-05-14T02:13:34.099Z,81.55
2023-05-14T02:28:40.699Z,82.52
2023-05-14T02:32:34.379Z,83.09
2023-05-14T02:36:19.319Z,83.40
2023-05-14T02:39:36.922Z,83.53
2023-05-14T02:42:51.671Z,83.30
2023-05-14T02:46:13.957Z,82.62
2023-05-14T02:49:44.622Z,82.54
2023-05-14T02:56:52.405Z,81.94
2023-05-14T03:00:41.249Z,81.83
2023-05-14T03:11:44.313Z,82.59
2023-05-14T03:15:01.821Z,82.97
2023-05-14T03:18:18.615Z,83.10
2023-05-14T03:21:52.342Z,83.55
2023-05-14T03:25:28.639Z,83.20
2023-05-14T04:54:14.732Z,82.92
2023-05-14T04:57:31.028Z,82.55
2023-05-14T05:01:16.441Z,82.71
2023-05-14T05:05:02.878Z,82.96
2023-05-14T05:08:39.749Z,83.28
2023-05-14T05:12:21.329Z,83.03
2023-05-14T05:16:06.536Z,83.01
2023-05-14T05:19:48.520Z,83.04
2023-05-14T05:26:25.446Z,83.66
2023-05-14T05:29:57.036Z,83.62
2023-05-14T05:33:44.911Z,83.53
2023-05-14T05:37:17.796Z,83.28
2023-05-14T05:41:07.192Z,82.81
2023-05-14T06:25:54.700Z,74.85
2023-05-14T06:29:29.449Z,75.78
2023-05-14T06:33:08.022Z,74.42
2023-05-14T07:11:44.419Z,60.33
2023-05-14T07:15:35.313Z,59.48
2023-05-14T07:19:28.678Z,58.22
2023-05-14T07:38:12.776Z,54.09
2023-05-14T07:42:03.383Z,53.37
2023-05-14T07:45:20.963Z,52.15
2023-05-14T07:48:58.809Z,51.91
2023-05-14T08:20:39.727Z,46.04
2023-05-14T08:23:46.208Z,46.26
2023-05-14T08:26:35.468Z,47.41
2023-05-14T08:30:12.868Z,46.53
2023-05-14T08:33:19.817Z,46.65
2023-05-14T08:36:42.171Z,46.22
2023-05-14T08:40:12.246Z,45.20
2023-05-14T08:43:21.639Z,45.21
2023-05-14T08:46:39.802Z,44.75
2023-05-14T08:50:08.645Z,44.02
2023-05-14T08:53:22.754Z,44.81
2023-05-14T08:56:34.012Z,44.91
2023-05-14T09:00:36.120Z,44.63
2023-05-14T09:04:00.967Z,43.87
2023-05-14T09:07:24.808Z,43.29
2023-05-14T09:10:58.937Z,42.72
2023-05-14T09:14:40.377Z,42.44
2023-05-14T09:17:58.460Z,42.27
2023-05-14T09:21:10.374Z,41.34
2023-05-14T09:24:54.391Z,41.64
2023-05-14T09:28:48.797Z,41.50
2023-05-14T09:52:04.019Z,38.97
2023-05-14T10:45:34.477Z,40.66
2023-05-14T11:11:24.980Z,43.40
2023-05-14T11:15:20.711Z,42.60
2023-05-14T11:48:49.151Z,43.92
2023-05-14T11:52:19.699Z,43.40
2023-05-14T11:55:40.245Z,44.01
2023-05-14T11:59:01.843Z,43.93
2023-05-14T12:02:30.481Z,44.66
2023-05-14T12:06:17.028Z,44.96
2023-05-14T12:09:53.659Z,45.06
2023-05-14T12:13:25.144Z,45.92
2023-05-14T12:16:46.927Z,45.42
2023-05-14T13:02:20.355Z,50.22
2023-05-14T13:05:33.745Z,51.56
2023-05-14T13:08:54.325Z,52.84
2023-05-14T13:12:12.148Z,54.48
2023-05-14T13:15:22.621Z,54.99
2023-05-14T13:19:02.253Z,55.76
2023-05-14T13:22:26.129Z,56.32
2023-05-14T14:26:33.468Z,53.75
2023-05-14T14:30:16.476Z,54.32
2023-05-14T14:34:08.450Z,54.34
2023-05-14T14:37:53.875Z,53.94
2023-05-14T14:57:27.302Z,58.17
2023-05-14T15:01:09.694Z,60.43
2023-05-14T15:05:00.295Z,61.07
2023-05-14T15:12:40.660Z,62.65
2023-05-14T15:16:26.162Z,62.65
2023-05-14T15:20:12.531Z,63.47
2023-05-14T15:23:46.840Z,64.25
2023-05-14T15:31:19.517Z,63.75
2023-05-14T15:34:48.268Z,63.93
2023-05-14T15:37:57.297Z,63.78
2023-05-14T15:41:29.047Z,63.42
2023-05-14T15:44:45.834Z,63.16
2023-05-14T15:47:55.598Z,63.35
2023-05-14T15:51:24.790Z,63.73
2023-05-14T15:54:37.722Z,63.38
2023-05-14T16:12:24.702Z,64.01
2023-05-14T16:15:57.705Z,63.69
2023-05-14T16:19:50.043Z,63.33
2023-05-14T16:23:26.926Z,62.70
2023-05-14T16:52:56.305Z,58.82
2023-05-14T16:56:11.503Z,59.71
2023-05-14T16:59:26.354Z,59.65
2023-05-14T17:03:07.806Z,60.15
2023-05-14T17:06:31.692Z,60.29
2023-05-14T17:09:49.405Z,61.11
2023-05-14T17:31:51.305Z,56.19
2023-05-14T17:35:07.900Z,55.53
2023-05-14T17:38:36.506Z,55.57
2023-05-14T17:42:07.678Z,56.11
2023-05-14T17:45:28.591Z,56.17
2023-05-14T17:48:52.601Z,56.08
2023-05-14T17:52:20.577Z,55.04
2023-05-14T17:56:00.773Z,55.61
2023-05-14T17:59:33.769Z,56.16
2023-05-14T18:03:00.291Z,56.51
2023-05-14T18:34:17.887Z,58.79
2023-05-14T18:37:41.583Z,57.98
2023-05-14T18:41:14.237Z,57.59
2023-05-14T18:44:45.582Z,57.02
2023-05-14T18:59:17.097Z,56.62
2023-05-14T19:03:09.421Z,56.15
2023-05-14T19:06:44.802Z,55.57
2023-05-14T19:21:16.334Z,54.23
2023-05-14T19:24:40.567Z,54.35
2023-05-14T19:28:16.981Z,54.30
2023-05-14T19:31:53.308Z,54.35
2023-05-14T19:35:39.933Z,54.23
2023-05-14T20:08:13.545Z,53.93
2023-05-14T20:11:34.670Z,53.69
2023-05-14T20:14:59.407Z,53.88
2023-05-14T20:18:36.741Z,54.21
2023-05-14T20:22:28.780Z,53.74
2023-05-14T20:25:48.807Z,53.66
2023-05-14T20:56:37.029Z,55.21
2023-05-14T20:59:28.268Z,55.42
2023-05-14T21:02:53.127Z,55.70
2023-05-14T21:05:44.433Z,55.25
2023-05-14T21:08:39.665Z,55.82
2023-05-14T21:11:25.945Z,56.18
2023-05-14T21:14:12.857Z,55.92
2023-05-14T21:17:16.583Z,55.67
2023-05-14T21:20:12.364Z,56.13
2023-05-14T21:23:16.152Z,56.74
2023-05-14T21:26:15.395Z,57.35
2023-05-14T21:28:57.985Z,57.88
2023-05-14T21:32:14.062Z,58.87
2023-05-14T21:34:59.171Z,58.72
2023-05-14T21:37:41.492Z,58.66
2023-05-14T21:40:40.940Z,59.49
2023-05-14T21:44:01.521Z,59.11
2023-05-14T21:46:57.256Z,58.82
2023-05-14T21:49:44.979Z,58.93
2023-05-14T21:52:49.209Z,58.83
2023-05-14T21:55:58.894Z,59.27
2023-05-14T21:58:57.885Z,59.60
2023-05-14T22:01:35.640Z,59.52
2023-05-14T22:04:35.628Z,58.92
2023-05-14T22:07:48.674Z,58.53
2023-05-14T22:10:34.275Z,58.36
2023-05-14T22:13:28.295Z,58.51
2023-05-14T22:16:46.153Z,58.04
2023-05-14T22:20:00.540Z,58.39
2023-05-14T22:22:58.378Z,58.34
2023-05-14T22:25:40.898Z,58.50
2023-05-14T22:29:07.226Z,58.29
2023-05-14T22:32:13.174Z,58.20
2023-05-14T22:35:09.182Z,58.32
2023-05-14T22:38:22.099Z,57.62
2023-05-14T22:41:38.984Z,58.44
2023-05-14T22:44:55.672Z,58.00
2023-05-14T22:47:52.521Z,57.59
2023-05-14T22:51:00.374Z,57.28
2023-05-14T22:54:01.417Z,57.37
2023-05-14T22:57:08.071Z,57.04
2023-05-14T23:00:18.924Z,57.57
2023-05-14T23:03:33.732Z,57.31
2023-05-14T23:06:33.630Z,56.97
2023-05-14T23:10:04.818Z,57.10
2023-05-14T23:13:07.644Z,57.25
2023-05-14T23:16:23.090Z,56.69
2023-05-14T23:19:12.381Z,56.95
2023-05-14T23:22:01.816Z,57.21
2023-05-14T23:25:07.500Z,56.93
2023-05-14T23:27:55.490Z,57.09
2023-05-14T23:31:09.092Z,57.06
2023-05-14T23:34:27.046Z,57.31
2023-05-14T23:37:43.551Z,57.25
2023-05-14T23:41:07.563Z,57.20
2023-05-14T23:44:09.842Z,57.43
2023-05-14T23:47:15.115Z,57.57
2023-05-14T23:50:25.617Z,57.53
2023-05-14T23:53:32.255Z,57.59
2023-05-14T23:56:56.295Z,57.60
